Cokedale, Colorado
Current Conditions -  °F | °C
As of 11:54 PM on Friday 19 Dec 2014 (Local Time) from KTAD Reporting Station
Clear Clear  
Wind Chill: 18°   Ceiling: Unl
Heat Index: 28°   Visibility: 10mi
Dew Point: 16°   Wind: 12mph
Humidity: 61%   Direction: 290°WNW
Pressure: 30.07"   Gusts: NA
Location:  37.1661°N, 104.486°W
Report Text: KTAD 200654Z AUTO 29010KT 10SM CLR M02/M09 A3007 RMK AO2 SLP178 T10221089 400831056
Loading
Personal Weather Stations






























Interactive Weather Map New forecast layout! Learn more

10-Day Weather Forecast

Advertisements
Track Severe Weather on mobile